sensor_id;sensor_type;location;lat;lon;timestamp;pressure;altitude;pressure_sealevel;temperature;humidity
16664;BME280;8445;51.270;9.434;2023-11-21T00:00:39;98905.03;;;7.41;80.93
16664;BME280;8445;51.270;9.434;2023-11-21T00:03:06;98887.22;;;7.35;80.89
16664;BME280;8445;51.270;9.434;2023-11-21T00:05:33;98902.28;;;7.49;81.21
16664;BME280;8445;51.270;9.434;2023-11-21T00:13:21;98910.00;;;7.65;80.84
16664;BME280;8445;51.270;9.434;2023-11-21T00:15:47;98911.91;;;7.71;80.57
16664;BME280;8445;51.270;9.434;2023-11-21T00:18:14;98897.41;;;7.67;80.72
16664;BME280;8445;51.270;9.434;2023-11-21T00:20:39;98891.66;;;7.64;80.64
16664;BME280;8445;51.270;9.434;2023-11-21T00:23:05;98889.69;;;7.72;80.54
16664;BME280;8445;51.270;9.434;2023-11-21T00:25:32;98917.63;;;7.90;80.33
16664;BME280;8445;51.270;9.434;2023-11-21T00:27:58;98922.56;;;7.93;80.56
16664;BME280;8445;51.270;9.434;2023-11-21T00:30:28;98924.19;;;7.94;80.25
16664;BME280;8445;51.270;9.434;2023-11-21T00:32:54;98919.72;;;7.94;80.50
16664;BME280;8445;51.270;9.434;2023-11-21T00:35:20;98923.38;;;7.93;80.31
16664;BME280;8445;51.270;9.434;2023-11-21T00:37:47;98920.72;;;7.93;80.67
16664;BME280;8445;51.270;9.434;2023-11-21T00:40:15;98921.75;;;7.92;80.24
16664;BME280;8445;51.270;9.434;2023-11-21T00:42:42;98914.50;;;7.86;80.48
16664;BME280;8445;51.270;9.434;2023-11-21T00:45:08;98918.81;;;7.87;80.47
16664;BME280;8445;51.270;9.434;2023-11-21T00:47:34;98922.66;;;7.85;80.45
16664;BME280;8445;51.270;9.434;2023-11-21T00:50:00;98922.47;;;7.86;80.44
16664;BME280;8445;51.270;9.434;2023-11-21T00:52:26;98913.19;;;7.76;80.73
16664;BME280;8445;51.270;9.434;2023-11-21T00:54:52;98896.47;;;7.60;80.53
16664;BME280;8445;51.270;9.434;2023-11-21T00:57:18;98895.22;;;7.56;80.39
16664;BME280;8445;51.270;9.434;2023-11-21T00:59:43;98928.81;;;7.70;80.42
16664;BME280;8445;51.270;9.434;2023-11-21T01:02:09;98914.59;;;7.57;80.33
16664;BME280;8445;51.270;9.434;2023-11-21T01:04:36;98928.28;;;7.60;80.79
16664;BME280;8445;51.270;9.434;2023-11-21T01:07:03;98930.69;;;7.55;80.58
16664;BME280;8445;51.270;9.434;2023-11-21T01:09:31;98938.72;;;7.47;80.49
16664;BME280;8445;51.270;9.434;2023-11-21T01:11:57;98931.25;;;7.36;80.82
16664;BME280;8445;51.270;9.434;2023-11-21T01:14:24;98933.72;;;7.23;80.57
16664;BME280;8445;51.270;9.434;2023-11-21T01:16:52;98938.34;;;7.21;80.41
16664;BME280;8445;51.270;9.434;2023-11-21T01:19:18;98932.06;;;7.07;80.82
16664;BME280;8445;51.270;9.434;2023-11-21T01:21:44;98937.91;;;7.02;80.63
16664;BME280;8445;51.270;9.434;2023-11-21T01:24:10;98954.53;;;6.96;81.02
16664;BME280;8445;51.270;9.434;2023-11-21T01:26:36;98938.63;;;6.81;81.04
16664;BME280;8445;51.270;9.434;2023-11-21T01:29:02;98950.94;;;6.89;80.91
16664;BME280;8445;51.270;9.434;2023-11-21T01:31:27;98936.50;;;6.77;81.16
16664;BME280;8445;51.270;9.434;2023-11-21T01:33:55;98953.31;;;6.84;80.87
16664;BME280;8445;51.270;9.434;2023-11-21T01:36:22;98936.41;;;6.70;81.36
16664;BME280;8445;51.270;9.434;2023-11-21T01:38:48;98957.31;;;6.80;81.53
16664;BME280;8445;51.270;9.434;2023-11-21T01:41:14;98951.19;;;6.79;81.33
16664;BME280;8445;51.270;9.434;2023-11-21T01:43:41;98935.09;;;6.66;81.16
16664;BME280;8445;51.270;9.434;2023-11-21T01:46:09;98958.50;;;6.92;81.08
16664;BME280;8445;51.270;9.434;2023-11-21T01:48:35;98962.28;;;6.98;81.18
16664;BME280;8445;51.270;9.434;2023-11-21T01:51:02;98927.66;;;6.85;81.09
16664;BME280;8445;51.270;9.434;2023-11-21T01:53:29;98945.56;;;6.97;80.84
16664;BME280;8445;51.270;9.434;2023-11-21T01:55:56;98944.38;;;7.00;81.11
16664;BME280;8445;51.270;9.434;2023-11-21T01:58:23;98956.56;;;7.09;81.01
16664;BME280;8445;51.270;9.434;2023-11-21T02:00:49;98945.78;;;7.10;80.84
16664;BME280;8445;51.270;9.434;2023-11-21T02:03:16;98955.00;;;7.15;80.83
16664;BME280;8445;51.270;9.434;2023-11-21T02:05:42;98973.91;;;7.26;81.01
16664;BME280;8445;51.270;9.434;2023-11-21T02:08:08;98964.56;;;7.30;81.04
16664;BME280;8445;51.270;9.434;2023-11-21T02:10:35;98976.81;;;7.31;81.14
16664;BME280;8445;51.270;9.434;2023-11-21T02:13:03;98979.94;;;7.35;81.17
16664;BME280;8445;51.270;9.434;2023-11-21T02:15:29;98983.03;;;7.38;81.37
16664;BME280;8445;51.270;9.434;2023-11-21T02:17:55;98975.91;;;7.39;81.36
16664;BME280;8445;51.270;9.434;2023-11-21T02:20:24;98968.34;;;7.36;81.65
16664;BME280;8445;51.270;9.434;2023-11-21T02:22:56;98984.31;;;7.43;81.39
16664;BME280;8445;51.270;9.434;2023-11-21T02:25:30;98982.94;;;7.47;81.67
16664;BME280;8445;51.270;9.434;2023-11-21T02:28:00;98982.50;;;7.43;81.19
16664;BME280;8445;51.270;9.434;2023-11-21T02:30:27;98988.91;;;7.49;81.39
16664;BME280;8445;51.270;9.434;2023-11-21T02:32:54;98985.25;;;7.50;81.54
16664;BME280;8445;51.270;9.434;2023-11-21T02:35:21;98988.72;;;7.50;81.27
16664;BME280;8445;51.270;9.434;2023-11-21T02:37:48;98974.53;;;7.43;81.16
16664;BME280;8445;51.270;9.434;2023-11-21T02:40:14;98994.28;;;7.55;81.37
16664;BME280;8445;51.270;9.434;2023-11-21T02:42:50;98974.16;;;7.46;81.20
16664;BME280;8445;51.270;9.434;2023-11-21T02:45:22;98998.56;;;7.56;81.16
16664;BME280;8445;51.270;9.434;2023-11-21T02:47:50;98984.88;;;7.53;81.05
16664;BME280;8445;51.270;9.434;2023-11-21T02:50:18;98987.41;;;7.61;81.29
16664;BME280;8445;51.270;9.434;2023-11-21T02:52:45;98990.06;;;7.61;81.26
16664;BME280;8445;51.270;9.434;2023-11-21T02:55:11;98958.28;;;7.46;80.84
16664;BME280;8445;51.270;9.434;2023-11-21T02:57:37;98991.16;;;7.66;80.85
16664;BME280;8445;51.270;9.434;2023-11-21T03:00:03;98987.31;;;7.69;81.17
16664;BME280;8445;51.270;9.434;2023-11-21T03:02:34;98996.09;;;7.69;81.09
16664;BME280;8445;51.270;9.434;2023-11-21T03:05:06;98980.47;;;7.60;81.38
16664;BME280;8445;51.270;9.434;2023-11-21T03:07:32;99004.03;;;7.69;81.25
16664;BME280;8445;51.270;9.434;2023-11-21T03:10:01;98994.91;;;7.72;80.98
16664;BME280;8445;51.270;9.434;2023-11-21T03:12:30;98989.91;;;7.62;81.24
16664;BME280;8445;51.270;9.434;2023-11-21T03:14:58;99009.78;;;7.73;81.18
16664;BME280;8445;51.270;9.434;2023-11-21T03:17:25;98991.88;;;7.60;81.24
16664;BME280;8445;51.270;9.434;2023-11-21T03:19:50;98989.16;;;7.54;81.21
16664;BME280;8445;51.270;9.434;2023-11-21T03:22:17;99007.88;;;7.67;80.95
16664;BME280;8445;51.270;9.434;2023-11-21T03:24:46;98997.94;;;7.54;81.28
16664;BME280;8445;51.270;9.434;2023-11-21T03:27:15;99011.44;;;7.59;81.09
16664;BME280;8445;51.270;9.434;2023-11-21T03:29:40;99017.13;;;7.56;81.28
16664;BME280;8445;51.270;9.434;2023-11-21T03:32:07;98974.53;;;7.28;81.22
16664;BME280;8445;51.270;9.434;2023-11-21T03:34:33;99001.97;;;7.35;80.96
16664;BME280;8445;51.270;9.434;2023-11-21T03:36:58;99001.22;;;7.27;80.93
16664;BME280;8445;51.270;9.434;2023-11-21T03:39:24;99015.66;;;7.24;81.13
16664;BME280;8445;51.270;9.434;2023-11-21T03:41:51;99017.59;;;7.07;81.18
16664;BME280;8445;51.270;9.434;2023-11-21T03:44:17;99009.72;;;6.85;81.34
16664;BME280;8445;51.270;9.434;2023-11-21T03:46:44;99018.72;;;6.75;81.22
16664;BME280;8445;51.270;9.434;2023-11-21T03:49:11;99025.56;;;6.70;81.15
16664;BME280;8445;51.270;9.434;2023-11-21T03:51:37;99024.31;;;6.58;81.49
16664;BME280;8445;51.270;9.434;2023-11-21T03:54:03;99011.72;;;6.37;81.72
16664;BME280;8445;51.270;9.434;2023-11-21T03:56:30;99035.53;;;6.37;81.74
16664;BME280;8445;51.270;9.434;2023-11-21T03:58:59;99028.81;;;6.26;81.71
16664;BME280;8445;51.270;9.434;2023-11-21T04:01:25;99018.69;;;6.07;81.95
16664;BME280;8445;51.270;9.434;2023-11-21T04:03:51;99031.91;;;6.07;81.69
16664;BME280;8445;51.270;9.434;2023-11-21T04:06:18;99036.38;;;5.98;81.91
16664;BME280;8445;51.270;9.434;2023-11-21T04:08:44;99026.00;;;5.88;82.00
16664;BME280;8445;51.270;9.434;2023-11-21T04:11:11;99030.69;;;5.78;81.95
16664;BME280;8445;51.270;9.434;2023-11-21T04:13:41;99043.25;;;5.76;81.73
16664;BME280;8445;51.270;9.434;2023-11-21T04:16:08;99043.59;;;5.65;82.10
16664;BME280;8445;51.270;9.434;2023-11-21T04:18:38;99017.06;;;5.42;81.75
16664;BME280;8445;51.270;9.434;2023-11-21T04:21:07;99046.78;;;5.52;81.56
16664;BME280;8445;51.270;9.434;2023-11-21T04:23:35;99048.28;;;5.39;81.87
16664;BME280;8445;51.270;9.434;2023-11-21T04:26:01;99038.72;;;5.29;81.95
16664;BME280;8445;51.270;9.434;2023-11-21T04:28:28;99037.59;;;5.24;82.12
16664;BME280;8445;51.270;9.434;2023-11-21T04:30:53;99038.91;;;5.20;82.30
16664;BME280;8445;51.270;9.434;2023-11-21T04:33:19;99036.59;;;5.17;82.82
16664;BME280;8445;51.270;9.434;2023-11-21T04:35:47;99060.53;;;5.23;82.53
16664;BME280;8445;51.270;9.434;2023-11-21T04:38:13;99051.97;;;5.13;82.13
16664;BME280;8445;51.270;9.434;2023-11-21T04:40:39;99064.66;;;5.18;82.61
16664;BME280;8445;51.270;9.434;2023-11-21T04:43:05;99081.00;;;5.21;82.60
16664;BME280;8445;51.270;9.434;2023-11-21T04:45:31;99058.88;;;5.14;83.04
16664;BME280;8445;51.270;9.434;2023-11-21T04:47:56;99067.47;;;5.24;83.30
16664;BME280;8445;51.270;9.434;2023-11-21T04:50:22;99081.94;;;5.45;83.23
16664;BME280;8445;51.270;9.434;2023-11-21T04:52:48;99093.81;;;5.57;82.98
16664;BME280;8445;51.270;9.434;2023-11-21T04:55:14;99074.00;;;5.61;83.08
16664;BME280;8445;51.270;9.434;2023-11-21T04:57:41;99092.09;;;5.80;82.93
16664;BME280;8445;51.270;9.434;2023-11-21T05:00:10;99063.75;;;5.66;82.74
16664;BME280;8445;51.270;9.434;2023-11-21T05:02:36;99088.13;;;5.92;82.37
16664;BME280;8445;51.270;9.434;2023-11-21T05:05:05;99102.94;;;6.10;82.96
16664;BME280;8445;51.270;9.434;2023-11-21T05:07:32;99100.25;;;6.18;82.63
16664;BME280;8445;51.270;9.434;2023-11-21T05:09:58;99107.50;;;6.24;82.75
16664;BME280;8445;51.270;9.434;2023-11-21T05:12:24;99114.09;;;6.28;82.61
16664;BME280;8445;51.270;9.434;2023-11-21T05:14:51;99102.19;;;6.24;82.75
16664;BME280;8445;51.270;9.434;2023-11-21T05:17:17;99102.03;;;6.26;82.62
16664;BME280;8445;51.270;9.434;2023-11-21T05:19:43;99114.88;;;6.37;82.79
16664;BME280;8445;51.270;9.434;2023-11-21T05:22:11;99124.09;;;6.41;82.63
16664;BME280;8445;51.270;9.434;2023-11-21T05:24:38;99117.34;;;6.38;82.54
16664;BME280;8445;51.270;9.434;2023-11-21T05:27:05;99111.41;;;6.36;82.76
16664;BME280;8445;51.270;9.434;2023-11-21T05:29:31;99132.00;;;6.49;82.63
16664;BME280;8445;51.270;9.434;2023-11-21T05:31:57;99128.53;;;6.48;82.83
16664;BME280;8445;51.270;9.434;2023-11-21T05:34:22;99132.97;;;6.56;82.80
16664;BME280;8445;51.270;9.434;2023-11-21T05:36:50;99130.34;;;6.56;82.77
16664;BME280;8445;51.270;9.434;2023-11-21T05:39:16;99119.13;;;6.46;82.79
16664;BME280;8445;51.270;9.434;2023-11-21T05:41:46;99126.25;;;6.45;83.14
16664;BME280;8445;51.270;9.434;2023-11-21T05:44:12;99136.31;;;6.50;82.50
16664;BME280;8445;51.270;9.434;2023-11-21T05:46:40;99133.19;;;6.46;82.56
16664;BME280;8445;51.270;9.434;2023-11-21T05:49:08;99137.00;;;6.44;82.37
16664;BME280;8445;51.270;9.434;2023-11-21T05:51:34;99124.72;;;6.20;82.57
16664;BME280;8445;51.270;9.434;2023-11-21T05:54:00;99155.06;;;6.32;82.99
16664;BME280;8445;51.270;9.434;2023-11-21T05:56:26;99158.72;;;6.31;83.00
16664;BME280;8445;51.270;9.434;2023-11-21T05:58:52;99150.28;;;6.28;82.61
16664;BME280;8445;51.270;9.434;2023-11-21T06:01:18;99144.03;;;6.29;82.91
16664;BME280;8445;51.270;9.434;2023-11-21T06:03:44;99142.88;;;6.23;82.99
16664;BME280;8445;51.270;9.434;2023-11-21T06:06:11;99157.72;;;6.32;82.56
16664;BME280;8445;51.270;9.434;2023-11-21T06:08:37;99143.03;;;6.21;82.61
16664;BME280;8445;51.270;9.434;2023-11-21T06:11:03;99160.53;;;6.31;82.66
16664;BME280;8445;51.270;9.434;2023-11-21T06:13:29;99168.31;;;6.24;82.79
16664;BME280;8445;51.270;9.434;2023-11-21T06:15:54;99155.13;;;6.16;82.95
16664;BME280;8445;51.270;9.434;2023-11-21T06:18:23;99152.50;;;6.08;82.85
16664;BME280;8445;51.270;9.434;2023-11-21T06:20:49;99154.84;;;6.03;82.63
16664;BME280;8445;51.270;9.434;2023-11-21T06:23:15;99177.78;;;6.10;82.87
16664;BME280;8445;51.270;9.434;2023-11-21T06:25:42;99160.78;;;5.97;83.02
16664;BME280;8445;51.270;9.434;2023-11-21T06:28:08;99168.06;;;5.95;83.14
16664;BME280;8445;51.270;9.434;2023-11-21T06:30:33;99178.31;;;5.98;83.18
16664;BME280;8445;51.270;9.434;2023-11-21T06:32:59;99183.59;;;5.98;82.91
16664;BME280;8445;51.270;9.434;2023-11-21T06:35:26;99173.69;;;5.83;82.82
16664;BME280;8445;51.270;9.434;2023-11-21T06:37:55;99179.13;;;5.82;83.13
16664;BME280;8445;51.270;9.434;2023-11-21T06:40:21;99195.31;;;5.87;82.95
16664;BME280;8445;51.270;9.434;2023-11-21T06:42:48;99173.03;;;5.73;83.18
16664;BME280;8445;51.270;9.434;2023-11-21T06:45:15;99207.38;;;5.89;82.86
16664;BME280;8445;51.270;9.434;2023-11-21T06:47:43;99189.69;;;5.82;82.94
16664;BME280;8445;51.270;9.434;2023-11-21T06:50:09;99204.25;;;5.94;82.93
16664;BME280;8445;51.270;9.434;2023-11-21T06:52:35;99203.78;;;5.90;83.10
16664;BME280;8445;51.270;9.434;2023-11-21T06:55:04;99215.97;;;6.00;82.91
16664;BME280;8445;51.270;9.434;2023-11-21T06:57:31;99222.53;;;6.12;82.86
16664;BME280;8445;51.270;9.434;2023-11-21T06:59:57;99186.56;;;5.95;83.07
16664;BME280;8445;51.270;9.434;2023-11-21T07:02:25;99218.09;;;6.12;82.92
16664;BME280;8445;51.270;9.434;2023-11-21T07:04:53;99216.31;;;6.05;82.70
16664;BME280;8445;51.270;9.434;2023-11-21T07:07:19;99229.00;;;6.09;83.13
16664;BME280;8445;51.270;9.434;2023-11-21T07:09:45;99224.22;;;6.05;82.79
16664;BME280;8445;51.270;9.434;2023-11-21T07:12:11;99216.47;;;5.95;82.89
16664;BME280;8445;51.270;9.434;2023-11-21T07:14:37;99222.25;;;5.99;83.14
16664;BME280;8445;51.270;9.434;2023-11-21T07:17:06;99233.47;;;6.01;82.78
16664;BME280;8445;51.270;9.434;2023-11-21T07:19:32;99208.06;;;5.75;83.06
16664;BME280;8445;51.270;9.434;2023-11-21T07:22:00;99241.09;;;6.04;83.32
16664;BME280;8445;51.270;9.434;2023-11-21T07:24:26;99246.50;;;6.10;83.10
16664;BME280;8445;51.270;9.434;2023-11-21T07:26:52;99249.97;;;6.19;83.57
16664;BME280;8445;51.270;9.434;2023-11-21T07:29:24;99263.03;;;6.29;83.19
16664;BME280;8445;51.270;9.434;2023-11-21T07:31:53;99248.63;;;6.31;82.97
16664;BME280;8445;51.270;9.434;2023-11-21T07:34:22;99258.00;;;6.50;82.95
16664;BME280;8445;51.270;9.434;2023-11-21T07:36:48;99257.16;;;6.49;82.94
16664;BME280;8445;51.270;9.434;2023-11-21T07:39:14;99269.34;;;6.67;82.99
16664;BME280;8445;51.270;9.434;2023-11-21T07:41:42;99268.84;;;6.71;83.13
16664;BME280;8445;51.270;9.434;2023-11-21T07:44:15;99271.78;;;6.76;83.37
16664;BME280;8445;51.270;9.434;2023-11-21T07:46:42;99263.03;;;6.76;83.17
16664;BME280;8445;51.270;9.434;2023-11-21T07:49:08;99262.00;;;6.85;83.02
16664;BME280;8445;51.270;9.434;2023-11-21T07:51:34;99278.47;;;7.03;82.96
16664;BME280;8445;51.270;9.434;2023-11-21T07:54:00;99283.38;;;7.15;82.85
16664;BME280;8445;51.270;9.434;2023-11-21T07:56:26;99280.19;;;7.19;82.70
16664;BME280;8445;51.270;9.434;2023-11-21T07:58:52;99282.28;;;7.32;82.63
16664;BME280;8445;51.270;9.434;2023-11-21T08:01:18;99270.34;;;7.36;82.43
16664;BME280;8445;51.270;9.434;2023-11-21T08:03:44;99284.97;;;7.55;82.32
16664;BME280;8445;51.270;9.434;2023-11-21T08:06:10;99279.78;;;7.61;82.56
16664;BME280;8445;51.270;9.434;2023-11-21T08:08:35;99287.63;;;7.78;82.64
16664;BME280;8445;51.270;9.434;2023-11-21T08:11:03;99279.41;;;7.87;82.26
16664;BME280;8445;51.270;9.434;2023-11-21T08:13:29;99297.28;;;8.08;82.30
16664;BME280;8445;51.270;9.434;2023-11-21T08:15:58;99281.50;;;8.15;82.33
16664;BME280;8445;51.270;9.434;2023-11-21T08:18:30;99289.19;;;8.24;82.30
16664;BME280;8445;51.270;9.434;2023-11-21T08:20:57;99304.63;;;8.44;82.04
16664;BME280;8445;51.270;9.434;2023-11-21T08:23:23;99303.44;;;8.46;82.09
16664;BME280;8445;51.270;9.434;2023-11-21T08:25:52;99312.78;;;8.57;82.11
16664;BME280;8445;51.270;9.434;2023-11-21T08:28:18;99304.00;;;8.56;81.88
16664;BME280;8445;51.270;9.434;2023-11-21T08:30:45;99301.81;;;8.60;82.11
16664;BME280;8445;51.270;9.434;2023-11-21T08:33:11;99319.75;;;8.73;81.89
16664;BME280;8445;51.270;9.434;2023-11-21T08:35:38;99321.22;;;8.75;81.55
16664;BME280;8445;51.270;9.434;2023-11-21T08:38:04;99323.16;;;8.81;82.20
16664;BME280;8445;51.270;9.434;2023-11-21T08:40:30;99321.13;;;8.83;81.72
16664;BME280;8445;51.270;9.434;2023-11-21T08:42:57;99319.94;;;8.86;82.13
16664;BME280;8445;51.270;9.434;2023-11-21T08:45:25;99314.81;;;8.84;81.61
16664;BME280;8445;51.270;9.434;2023-11-21T08:47:55;99303.19;;;8.85;82.01
16664;BME280;8445;51.270;9.434;2023-11-21T08:50:22;99318.28;;;9.00;81.45
16664;BME280;8445;51.270;9.434;2023-11-21T08:53:08;99323.84;;;9.05;81.65
16664;BME280;8445;51.270;9.434;2023-11-21T08:55:41;99319.16;;;9.07;81.80
16664;BME280;8445;51.270;9.434;2023-11-21T08:58:19;99327.44;;;9.12;81.35
16664;BME280;8445;51.270;9.434;2023-11-21T09:01:00;99331.53;;;9.14;81.17
16664;BME280;8445;51.270;9.434;2023-11-21T09:03:27;99323.75;;;9.13;80.91
16664;BME280;8445;51.270;9.434;2023-11-21T09:05:59;99334.66;;;9.18;80.74
16664;BME280;8445;51.270;9.434;2023-11-21T09:08:30;99336.28;;;9.19;80.88
16664;BME280;8445;51.270;9.434;2023-11-21T09:10:59;99337.31;;;9.18;81.07
16664;BME280;8445;51.270;9.434;2023-11-21T09:13:37;99336.47;;;9.17;80.40
16664;BME280;8445;51.270;9.434;2023-11-21T09:16:14;99339.31;;;9.16;80.31
16664;BME280;8445;51.270;9.434;2023-11-21T09:18:49;99333.94;;;9.09;81.15
16664;BME280;8445;51.270;9.434;2023-11-21T09:21:20;99350.22;;;9.21;81.01
16664;BME280;8445;51.270;9.434;2023-11-21T09:24:04;99345.91;;;9.20;81.04
16664;BME280;8445;51.270;9.434;2023-11-21T09:26:38;99353.78;;;9.28;80.94
16664;BME280;8445;51.270;9.434;2023-11-21T09:29:10;99342.91;;;9.23;80.87
16664;BME280;8445;51.270;9.434;2023-11-21T09:31:54;99353.88;;;9.35;80.98
16664;BME280;8445;51.270;9.434;2023-11-21T09:34:25;99348.47;;;9.28;80.70
16664;BME280;8445;51.270;9.434;2023-11-21T09:37:06;99362.94;;;9.40;80.76
16664;BME280;8445;51.270;9.434;2023-11-21T09:39:50;99350.28;;;9.42;80.38
16664;BME280;8445;51.270;9.434;2023-11-21T09:42:57;99362.47;;;9.52;80.26
16664;BME280;8445;51.270;9.434;2023-11-21T09:45:39;99364.16;;;9.59;80.22
16664;BME280;8445;51.270;9.434;2023-11-21T09:48:10;99367.94;;;9.65;80.44
16664;BME280;8445;51.270;9.434;2023-11-21T09:50:43;99372.50;;;9.71;80.25
16664;BME280;8445;51.270;9.434;2023-11-21T09:53:20;99354.25;;;9.68;80.67
16664;BME280;8445;51.270;9.434;2023-11-21T09:55:53;99368.31;;;9.83;80.28
16664;BME280;8445;51.270;9.434;2023-11-21T09:58:22;99365.66;;;9.83;80.65
16664;BME280;8445;51.270;9.434;2023-11-21T10:01:04;99378.91;;;9.98;80.44
16664;BME280;8445;51.270;9.434;2023-11-21T10:03:36;99376.78;;;10.08;80.19
16664;BME280;8445;51.270;9.434;2023-11-21T10:06:06;99376.19;;;10.13;79.63
16664;BME280;8445;51.270;9.434;2023-11-21T10:08:37;99374.50;;;10.26;80.15
16664;BME280;8445;51.270;9.434;2023-11-21T10:11:07;99370.50;;;10.37;80.10
16664;BME280;8445;51.270;9.434;2023-11-21T10:13:38;99380.84;;;10.47;79.75
16664;BME280;8445;51.270;9.434;2023-11-21T10:16:09;99380.13;;;10.59;79.83
16664;BME280;8445;51.270;9.434;2023-11-21T10:18:40;99378.06;;;10.61;79.48
16664;BME280;8445;51.270;9.434;2023-11-21T10:21:09;99388.13;;;10.66;79.41
16664;BME280;8445;51.270;9.434;2023-11-21T10:23:39;99373.16;;;10.58;79.33
16664;BME280;8445;51.270;9.434;2023-11-21T10:26:13;99384.66;;;10.65;78.97
16664;BME280;8445;51.270;9.434;2023-11-21T10:28:57;99380.75;;;10.61;79.13
16664;BME280;8445;51.270;9.434;2023-11-21T10:31:27;99387.94;;;10.68;78.82
16664;BME280;8445;51.270;9.434;2023-11-21T10:33:54;99385.69;;;10.64;78.76
16664;BME280;8445;51.270;9.434;2023-11-21T10:36:28;99391.78;;;10.58;78.15
16664;BME280;8445;51.270;9.434;2023-11-21T10:38:56;99399.38;;;10.61;78.22
16664;BME280;8445;51.270;9.434;2023-11-21T10:41:24;99399.00;;;10.64;78.50
16664;BME280;8445;51.270;9.434;2023-11-21T10:43:53;99396.94;;;10.66;78.26
16664;BME280;8445;51.270;9.434;2023-11-21T10:46:22;99401.53;;;10.73;78.65
16664;BME280;8445;51.270;9.434;2023-11-21T10:48:53;99386.31;;;10.66;78.19
16664;BME280;8445;51.270;9.434;2023-11-21T10:51:44;99402.16;;;10.75;77.91
16664;BME280;8445;51.270;9.434;2023-11-21T10:54:11;99391.44;;;10.68;77.99
16664;BME280;8445;51.270;9.434;2023-11-21T10:56:40;99399.88;;;10.72;78.02
16664;BME280;8445;51.270;9.434;2023-11-21T10:59:10;99400.91;;;10.71;78.16
16664;BME280;8445;51.270;9.434;2023-11-21T11:01:46;99390.78;;;10.59;77.74
16664;BME280;8445;51.270;9.434;2023-11-21T11:04:19;99397.13;;;10.58;78.00
16664;BME280;8445;51.270;9.434;2023-11-21T11:06:55;99409.25;;;10.68;77.71
16664;BME280;8445;51.270;9.434;2023-11-21T11:09:24;99402.28;;;10.66;77.88
16664;BME280;8445;51.270;9.434;2023-11-21T11:11:52;99404.59;;;10.70;78.14
16664;BME280;8445;51.270;9.434;2023-11-21T11:14:21;99406.59;;;10.68;77.95
16664;BME280;8445;51.270;9.434;2023-11-21T11:16:54;99410.06;;;10.68;77.52
16664;BME280;8445;51.270;9.434;2023-11-21T11:19:26;99416.63;;;10.65;78.17
16664;BME280;8445;51.270;9.434;2023-11-21T11:28:11;99412.41;;;10.50;78.48
16664;BME280;8445;51.270;9.434;2023-11-21T11:33:49;99401.94;;;10.27;78.76
16664;BME280;8445;51.270;9.434;2023-11-21T11:36:36;99415.44;;;10.25;78.76
16664;BME280;8445;51.270;9.434;2023-11-21T11:39:26;99426.84;;;10.19;78.62
16664;BME280;8445;51.270;9.434;2023-11-21T11:41:52;99423.66;;;10.09;78.96
16664;BME280;8445;51.270;9.434;2023-11-21T11:52:53;99425.13;;;9.75;79.81
16664;BME280;8445;51.270;9.434;2023-11-21T11:55:23;99415.63;;;9.66;79.91
16664;BME280;8445;51.270;9.434;2023-11-21T11:57:54;99409.47;;;9.66;79.58
16664;BME280;8445;51.270;9.434;2023-11-21T12:03:00;99428.88;;;9.81;80.12
16664;BME280;8445;51.270;9.434;2023-11-21T12:05:31;99440.16;;;9.83;79.64
16664;BME280;8445;51.270;9.434;2023-11-21T12:08:11;99427.97;;;9.74;80.40
16664;BME280;8445;51.270;9.434;2023-11-21T12:10:38;99440.16;;;9.83;80.00
16664;BME280;8445;51.270;9.434;2023-11-21T12:13:10;99439.41;;;9.74;80.56
16664;BME280;8445;51.270;9.434;2023-11-21T12:15:38;99429.88;;;9.80;80.31
16664;BME280;8445;51.270;9.434;2023-11-21T12:18:06;99418.34;;;9.73;80.06
16664;BME280;8445;51.270;9.434;2023-11-21T12:20:33;99441.25;;;9.89;80.22
16664;BME280;8445;51.270;9.434;2023-11-21T12:23:05;99430.22;;;9.92;79.98
16664;BME280;8445;51.270;9.434;2023-11-21T12:25:32;99445.56;;;10.11;79.95
16664;BME280;8445;51.270;9.434;2023-11-21T12:28:00;99429.81;;;10.10;79.89
16664;BME280;8445;51.270;9.434;2023-11-21T12:30:30;99451.06;;;10.24;79.57
16664;BME280;8445;51.270;9.434;2023-11-21T12:32:59;99451.88;;;10.25;79.36
16664;BME280;8445;51.270;9.434;2023-11-21T12:35:34;99457.69;;;10.28;79.48
16664;BME280;8445;51.270;9.434;2023-11-21T12:38:02;99436.22;;;10.15;79.22
16664;BME280;8445;51.270;9.434;2023-11-21T12:40:29;99466.03;;;10.25;78.69
16664;BME280;8445;51.270;9.434;2023-11-21T12:42:57;99454.66;;;10.17;78.74
16664;BME280;8445;51.270;9.434;2023-11-21T12:45:26;99459.69;;;10.12;78.63
16664;BME280;8445;51.270;9.434;2023-11-21T12:48:03;99469.81;;;10.01;78.88
16664;BME280;8445;51.270;9.434;2023-11-21T12:50:34;99440.09;;;9.76;79.30
16664;BME280;8445;51.270;9.434;2023-11-21T12:53:07;99486.00;;;9.85;79.38
16664;BME280;8445;51.270;9.434;2023-11-21T12:55:43;99465.94;;;9.68;80.17
16664;BME280;8445;51.270;9.434;2023-11-21T12:58:16;99463.03;;;9.63;79.99
16664;BME280;8445;51.270;9.434;2023-11-21T13:00:45;99488.03;;;9.68;79.92
16664;BME280;8445;51.270;9.434;2023-11-21T13:03:14;99499.25;;;9.64;79.91
16664;BME280;8445;51.270;9.434;2023-11-21T13:05:46;99495.47;;;9.58;79.98
16664;BME280;8445;51.270;9.434;2023-11-21T13:08:16;99490.44;;;9.48;79.85
16664;BME280;8445;51.270;9.434;2023-11-21T13:10:49;99480.91;;;9.39;80.25
16664;BME280;8445;51.270;9.434;2023-11-21T13:13:15;99492.00;;;9.28;80.55
16664;BME280;8445;51.270;9.434;2023-11-21T13:18:19;99502.44;;;9.30;79.94
16664;BME280;8445;51.270;9.434;2023-11-21T13:20:47;99492.25;;;9.18;80.70
16664;BME280;8445;51.270;9.434;2023-11-21T13:23:13;99500.66;;;9.07;81.35
16664;BME280;8445;51.270;9.434;2023-11-21T13:25:43;99490.31;;;8.98;81.40
16664;BME280;8445;51.270;9.434;2023-11-21T13:28:11;99492.38;;;8.87;81.65
16664;BME280;8445;51.270;9.434;2023-11-21T13:30:38;99504.44;;;8.75;82.74
16664;BME280;8445;51.270;9.434;2023-11-21T13:33:07;99509.34;;;8.64;82.68
16664;BME280;8445;51.270;9.434;2023-11-21T13:35:35;99505.63;;;8.50;82.99
16664;BME280;8445;51.270;9.434;2023-11-21T13:38:11;99529.97;;;8.53;83.43
16664;BME280;8445;51.270;9.434;2023-11-21T13:40:40;99531.88;;;8.45;84.13
16664;BME280;8445;51.270;9.434;2023-11-21T13:43:12;99537.88;;;8.39;83.67
16664;BME280;8445;51.270;9.434;2023-11-21T13:45:40;99535.25;;;8.30;84.08
16664;BME280;8445;51.270;9.434;2023-11-21T13:48:08;99552.22;;;8.21;83.98
16664;BME280;8445;51.270;9.434;2023-11-21T13:50:37;99525.97;;;7.95;84.20
16664;BME280;8445;51.270;9.434;2023-11-21T13:53:05;99553.31;;;7.96;84.29
16664;BME280;8445;51.270;9.434;2023-11-21T13:55:44;99562.75;;;7.98;84.43